This is the latest recevied weather packets stored in our database for station/object DG7AA-13. If no packets are shown the sender has not sent any weather packets the latest 10 day(s).
| Time | Temp. | Humidity | Pressure | Rain* | Wind** | Luminosity | Snow |
|---|---|---|---|---|---|---|---|
| 1777238130 | 4.44° C | 83% | - | 0 mm | - | - | - |
| 1777237522 | 5.56° C | 80% | - | 0 mm | - | - | - |
| 1777236932 | 5.56° C | 80% | - | 0 mm | - | - | - |
| 1777236331 | 6.11° C | 78% | - | 0 mm | - | - | - |
| 1777235730 | 6.11° C | 76% | - | 0 mm | - | - | - |
| 1777235121 | 6.67° C | 75% | - | 0 mm | - | - | - |
| 1777234529 | 6.67° C | 78% | - | 0 mm | - | - | - |
| 1777233922 | 6.67° C | 79% | - | 0 mm | - | - | - |
| 1777233329 | 6.67° C | 79% | - | 0 mm | - | - | - |
| 1777232724 | 7.22° C | 77% | - | 0 mm | - | - | - |
| 1777232130 | 7.22° C | 76% | - | 0 mm | - | - | - |
| 1777231522 | 7.78° C | 75% | - | 0 mm | - | - | - |
| 1777230930 | 7.78° C | 73% | - | 0 mm | - | - | - |
| 1777230336 | 8.33° C | 69% | - | 0 mm | - | - | - |
| 1777229729 | 8.89° C | 65% | - | 0 mm | - | - | - |
| 1777229122 | 9.44° C | 64% | - | 0 mm | - | - | - |
| 1777228530 | 9.44° C | 59% | - | 0 mm | - | - | - |
| 1777227921 | 10° C | 57% | - | 0 mm | - | - | - |
| 1777227329 | 11.11° C | 55% | - | 0 mm | - | - | - |
| 1777226724 | 12.22° C | 45% | - | 0 mm | - | - | - |
| 1777226119 | 12.22° C | 45% | - | 0 mm | - | - | - |
| 1777225522 | 12.78° C | 43% | - | 0 mm | - | - | - |
| 1777224933 | 13.33° C | 40% | - | 0 mm | - | - | - |
| 1777224321 | 13.89° C | 38% | - | 0 mm | - | - | - |
| 1777223733 | 13.89° C | 39% | - | 0 mm | - | - | - |
* Rain latest hour (hover to see other rain measurements)
** Current wind speed in m/s (hover to see current wind gust speed)